sensor_id;sensor_type;location;lat;lon;timestamp;pressure;altitude;pressure_sealevel;temperature;humidity
74561;BME280;62979;55.720;37.606;2023-01-28T00:00:49;100426.75;;;1.60;68.63
74561;BME280;62979;55.720;37.606;2023-01-28T00:03:17;100428.41;;;1.56;68.63
74561;BME280;62979;55.720;37.606;2023-01-28T00:05:43;100418.09;;;1.58;68.94
74561;BME280;62979;55.720;37.606;2023-01-28T00:08:10;100423.25;;;1.58;68.80
74561;BME280;62979;55.720;37.606;2023-01-28T00:10:39;100426.69;;;1.57;69.27
74561;BME280;62979;55.720;37.606;2023-01-28T00:13:07;100421.53;;;1.57;69.17
74561;BME280;62979;55.720;37.606;2023-01-28T00:15:37;100429.28;;;1.58;69.20
74561;BME280;62979;55.720;37.606;2023-01-28T00:18:05;100424.19;;;1.60;68.95
74561;BME280;62979;55.720;37.606;2023-01-28T00:20:32;100426.72;;;1.58;68.65
74561;BME280;62979;55.720;37.606;2023-01-28T00:22:59;100410.94;;;1.46;68.54
74561;BME280;62979;55.720;37.606;2023-01-28T00:25:26;100420.56;;;1.53;68.02
74561;BME280;62979;55.720;37.606;2023-01-28T00:27:53;100425.66;;;1.50;68.29
74561;BME280;62979;55.720;37.606;2023-01-28T00:30:20;100429.97;;;1.49;68.10
74561;BME280;62979;55.720;37.606;2023-01-28T00:32:47;100425.50;;;1.44;67.81
74561;BME280;62979;55.720;37.606;2023-01-28T00:35:16;100421.00;;;1.35;67.76
74561;BME280;62979;55.720;37.606;2023-01-28T00:37:44;100427.19;;;1.42;67.92
74561;BME280;62979;55.720;37.606;2023-01-28T00:40:12;100431.56;;;1.46;67.87
74561;BME280;62979;55.720;37.606;2023-01-28T00:42:40;100438.44;;;1.45;67.62
74561;BME280;62979;55.720;37.606;2023-01-28T00:45:07;100434.03;;;1.41;67.67
74561;BME280;62979;55.720;37.606;2023-01-28T00:47:34;100438.31;;;1.41;67.62
74561;BME280;62979;55.720;37.606;2023-01-28T00:50:02;100444.38;;;1.43;67.76
74561;BME280;62979;55.720;37.606;2023-01-28T00:52:31;100442.59;;;1.40;67.62
74561;BME280;62979;55.720;37.606;2023-01-28T00:54:57;100438.38;;;1.42;67.65
74561;BME280;62979;55.720;37.606;2023-01-28T00:57:25;100440.78;;;1.36;67.50
74561;BME280;62979;55.720;37.606;2023-01-28T00:59:52;100445.06;;;1.36;66.98
74561;BME280;62979;55.720;37.606;2023-01-28T01:02:18;100444.94;;;1.31;67.25
74561;BME280;62979;55.720;37.606;2023-01-28T01:04:45;100435.50;;;1.32;66.96
74561;BME280;62979;55.720;37.606;2023-01-28T01:07:21;100432.06;;;1.30;67.10
74561;BME280;62979;55.720;37.606;2023-01-28T01:10:00;100445.88;;;1.33;66.61
74561;BME280;62979;55.720;37.606;2023-01-28T01:12:28;100440.66;;;1.32;66.48
74561;BME280;62979;55.720;37.606;2023-01-28T01:14:55;100439.78;;;1.30;66.80
74561;BME280;62979;55.720;37.606;2023-01-28T01:17:22;100444.09;;;1.31;66.53
74561;BME280;62979;55.720;37.606;2023-01-28T01:19:50;100437.22;;;1.31;66.29
74561;BME280;62979;55.720;37.606;2023-01-28T01:22:17;100440.59;;;1.28;66.28
74561;BME280;62979;55.720;37.606;2023-01-28T01:24:44;100445.75;;;1.28;66.29
74561;BME280;62979;55.720;37.606;2023-01-28T01:27:12;100456.22;;;1.35;66.34
74561;BME280;62979;55.720;37.606;2023-01-28T01:29:39;100450.97;;;1.32;66.21
74561;BME280;62979;55.720;37.606;2023-01-28T01:32:06;100446.53;;;1.26;66.01
74561;BME280;62979;55.720;37.606;2023-01-28T01:34:33;100440.59;;;1.28;65.94
74561;BME280;62979;55.720;37.606;2023-01-28T01:36:59;100444.09;;;1.31;65.86
74561;BME280;62979;55.720;37.606;2023-01-28T01:39:28;100441.50;;;1.31;65.82
74561;BME280;62979;55.720;37.606;2023-01-28T01:41:55;100432.75;;;1.24;65.81
74561;BME280;62979;55.720;37.606;2023-01-28T01:47:39;100433.59;;;1.23;65.26
74561;BME280;62979;55.720;37.606;2023-01-28T01:50:17;100431.88;;;1.23;65.24
74561;BME280;62979;55.720;37.606;2023-01-28T01:52:55;100429.25;;;1.20;65.25
74561;BME280;62979;55.720;37.606;2023-01-28T01:55:26;100419.53;;;1.10;65.59
74561;BME280;62979;55.720;37.606;2023-01-28T01:58:00;100437.00;;;1.22;65.23
74561;BME280;62979;55.720;37.606;2023-01-28T02:00:33;100439.56;;;1.22;65.22
74561;BME280;62979;55.720;37.606;2023-01-28T02:03:00;100429.91;;;1.13;65.35
74561;BME280;62979;55.720;37.606;2023-01-28T02:05:27;100438.56;;;1.15;65.58
74561;BME280;62979;55.720;37.606;2023-01-28T02:07:56;100448.00;;;1.16;65.63
74561;BME280;62979;55.720;37.606;2023-01-28T02:10:46;100445.50;;;1.19;65.29
74561;BME280;62979;55.720;37.606;2023-01-28T02:13:15;100445.38;;;1.13;65.22
74561;BME280;62979;55.720;37.606;2023-01-28T02:15:46;100429.78;;;1.09;65.29
74561;BME280;62979;55.720;37.606;2023-01-28T02:18:15;100445.38;;;1.13;65.49
74561;BME280;62979;55.720;37.606;2023-01-28T02:21:00;100438.38;;;1.09;65.86
74561;BME280;62979;55.720;37.606;2023-01-28T02:23:54;100438.44;;;1.11;65.35
74561;BME280;62979;55.720;37.606;2023-01-28T02:26:52;100433.22;;;1.09;64.98
74561;BME280;62979;55.720;37.606;2023-01-28T02:29:33;100443.66;;;1.14;65.26
74561;BME280;62979;55.720;37.606;2023-01-28T02:32:10;100459.16;;;1.15;64.89
74561;BME280;62979;55.720;37.606;2023-01-28T02:34:46;100452.13;;;1.10;64.87
74561;BME280;62979;55.720;37.606;2023-01-28T02:37:21;100454.94;;;1.19;64.90
74561;BME280;62979;55.720;37.606;2023-01-28T02:39:55;100459.16;;;1.15;64.86
74561;BME280;62979;55.720;37.606;2023-01-28T02:42:27;100437.41;;;1.04;64.91
74561;BME280;62979;55.720;37.606;2023-01-28T02:44:58;100454.81;;;1.13;64.86
74561;BME280;62979;55.720;37.606;2023-01-28T02:47:25;100463.44;;;1.15;64.79
74561;BME280;62979;55.720;37.606;2023-01-28T02:50:11;100462.56;;;1.14;65.03
74561;BME280;62979;55.720;37.606;2023-01-28T02:52:50;100459.97;;;1.14;64.89
74561;BME280;62979;55.720;37.606;2023-01-28T02:55:51;100465.13;;;1.13;64.76
74561;BME280;62979;55.720;37.606;2023-01-28T02:58:30;100475.50;;;1.16;64.76
74561;BME280;62979;55.720;37.606;2023-01-28T03:01:09;100466.78;;;1.11;64.79
74561;BME280;62979;55.720;37.606;2023-01-28T03:03:52;100462.34;;;1.05;64.84
74561;BME280;62979;55.720;37.606;2023-01-28T03:06:29;100468.31;;;1.04;65.15
74561;BME280;62979;55.720;37.606;2023-01-28T03:09:02;100477.78;;;1.05;65.30
74561;BME280;62979;55.720;37.606;2023-01-28T03:11:54;100473.38;;;1.01;65.07
74561;BME280;62979;55.720;37.606;2023-01-28T03:14:40;100476.03;;;1.04;65.19
74561;BME280;62979;55.720;37.606;2023-01-28T03:17:32;100470.81;;;1.01;65.08
74561;BME280;62979;55.720;37.606;2023-01-28T03:20:26;100458.53;;;0.91;64.87
74561;BME280;62979;55.720;37.606;2023-01-28T03:23:20;100471.69;;;1.01;65.52
74561;BME280;62979;55.720;37.606;2023-01-28T03:26:13;100478.56;;;1.02;65.03
74561;BME280;62979;55.720;37.606;2023-01-28T03:29:06;100473.38;;;1.01;64.91
74561;BME280;62979;55.720;37.606;2023-01-28T03:31:55;100474.38;;;1.06;64.60
74561;BME280;62979;55.720;37.606;2023-01-28T03:34:43;100476.03;;;1.04;64.63
74561;BME280;62979;55.720;37.606;2023-01-28T03:37:29;100479.53;;;1.06;65.29
74561;BME280;62979;55.720;37.606;2023-01-28T03:40:01;100467.38;;;1.02;64.86
74561;BME280;62979;55.720;37.606;2023-01-28T03:42:31;100475.28;;;1.08;64.48
74561;BME280;62979;55.720;37.606;2023-01-28T03:44:58;100473.50;;;1.05;64.66
74561;BME280;62979;55.720;37.606;2023-01-28T03:47:29;100477.78;;;1.05;64.34
74561;BME280;62979;55.720;37.606;2023-01-28T03:49:58;100488.97;;;1.05;64.01
74561;BME280;62979;55.720;37.606;2023-01-28T03:52:27;100470.72;;;0.98;63.59
74561;BME280;62979;55.720;37.606;2023-01-28T03:54:56;100485.09;;;0.90;63.11
74561;BME280;62979;55.720;37.606;2023-01-28T03:57:25;100477.50;;;0.94;63.85
74561;BME280;62979;55.720;37.606;2023-01-28T03:59:55;100483.56;;;0.96;63.98
74561;BME280;62979;55.720;37.606;2023-01-28T04:02:22;100476.69;;;0.95;63.67
74561;BME280;62979;55.720;37.606;2023-01-28T04:04:51;100473.25;;;0.96;63.70
74561;BME280;62979;55.720;37.606;2023-01-28T04:07:19;100476.63;;;0.94;63.70
74561;BME280;62979;55.720;37.606;2023-01-28T04:09:46;100487.78;;;0.93;63.80
74561;BME280;62979;55.720;37.606;2023-01-28T04:12:13;100493.84;;;0.96;63.57
74561;BME280;62979;55.720;37.606;2023-01-28T04:14:40;100486.13;;;0.96;63.57
74561;BME280;62979;55.720;37.606;2023-01-28T04:17:07;100488.44;;;0.85;63.38
74561;BME280;62979;55.720;37.606;2023-01-28T04:19:35;100484.31;;;0.62;63.32
74561;BME280;62979;55.720;37.606;2023-01-28T04:22:04;100485.53;;;0.75;63.91
74561;BME280;62979;55.720;37.606;2023-01-28T04:24:33;100482.25;;;0.80;62.76
74561;BME280;62979;55.720;37.606;2023-01-28T04:27:00;100486.78;;;0.89;62.99
74561;BME280;62979;55.720;37.606;2023-01-28T04:29:27;100483.38;;;0.90;62.86
74561;BME280;62979;55.720;37.606;2023-01-28T04:31:54;100478.16;;;0.87;62.91
74561;BME280;62979;55.720;37.606;2023-01-28T04:34:21;100489.31;;;0.88;62.65
74561;BME280;62979;55.720;37.606;2023-01-28T04:36:48;100491.09;;;0.89;62.63
74561;BME280;62979;55.720;37.606;2023-01-28T04:39:15;100481.50;;;0.84;62.70
74561;BME280;62979;55.720;37.606;2023-01-28T04:41:43;100481.50;;;0.84;62.74
74561;BME280;62979;55.720;37.606;2023-01-28T04:44:10;100475.38;;;0.79;62.79
74561;BME280;62979;55.720;37.606;2023-01-28T04:46:38;100484.97;;;0.85;62.67
74561;BME280;62979;55.720;37.606;2023-01-28T04:49:04;100492.66;;;0.83;62.83
74561;BME280;62979;55.720;37.606;2023-01-28T04:51:31;100488.38;;;0.84;62.70
74561;BME280;62979;55.720;37.606;2023-01-28T04:53:58;100492.72;;;0.87;62.31
74561;BME280;62979;55.720;37.606;2023-01-28T04:56:25;100488.38;;;0.84;62.07
74561;BME280;62979;55.720;37.606;2023-01-28T04:58:53;100487.50;;;0.83;62.47
74561;BME280;62979;55.720;37.606;2023-01-28T05:01:20;100487.41;;;0.80;62.44
74561;BME280;62979;55.720;37.606;2023-01-28T05:03:47;100485.75;;;0.82;62.28
74561;BME280;62979;55.720;37.606;2023-01-28T05:06:14;100492.72;;;0.87;62.10
74561;BME280;62979;55.720;37.606;2023-01-28T05:08:41;100499.63;;;0.88;62.06
74561;BME280;62979;55.720;37.606;2023-01-28T05:11:10;100494.44;;;0.86;62.62
74561;BME280;62979;55.720;37.606;2023-01-28T05:13:37;100500.47;;;0.87;62.53
74561;BME280;62979;55.720;37.606;2023-01-28T05:16:06;100499.72;;;0.91;62.67
74561;BME280;62979;55.720;37.606;2023-01-28T05:18:33;100505.88;;;0.96;62.64
74561;BME280;62979;55.720;37.606;2023-01-28T05:21:00;100513.59;;;0.96;62.90
74561;BME280;62979;55.720;37.606;2023-01-28T05:23:27;100512.81;;;0.98;62.28
74561;BME280;62979;55.720;37.606;2023-01-28T05:25:53;100517.97;;;0.98;62.01
74561;BME280;62979;55.720;37.606;2023-01-28T05:28:20;100510.09;;;0.94;61.60
74561;BME280;62979;55.720;37.606;2023-01-28T05:30:47;100507.44;;;0.91;62.07
74561;BME280;62979;55.720;37.606;2023-01-28T05:33:15;100518.75;;;0.96;61.65
74561;BME280;62979;55.720;37.606;2023-01-28T05:35:42;100514.28;;;0.90;61.93
74561;BME280;62979;55.720;37.606;2023-01-28T05:38:10;100514.03;;;0.81;61.47
74561;BME280;62979;55.720;37.606;2023-01-28T05:40:37;100521.56;;;0.73;62.10
74561;BME280;62979;55.720;37.606;2023-01-28T05:43:04;100512.16;;;0.75;61.79
74561;BME280;62979;55.720;37.606;2023-01-28T05:45:30;100519.09;;;0.78;61.61
74561;BME280;62979;55.720;37.606;2023-01-28T05:47:57;100520.13;;;0.84;61.74
74561;BME280;62979;55.720;37.606;2023-01-28T05:50:25;100509.84;;;0.84;61.78
74561;BME280;62979;55.720;37.606;2023-01-28T05:52:52;100518.41;;;0.83;61.49
74561;BME280;62979;55.720;37.606;2023-01-28T05:55:19;100526.22;;;0.87;61.49
74561;BME280;62979;55.720;37.606;2023-01-28T05:57:47;100523.63;;;0.87;61.51
74561;BME280;62979;55.720;37.606;2023-01-28T06:00:14;100523.59;;;0.85;61.42
74561;BME280;62979;55.720;37.606;2023-01-28T06:02:42;100527.78;;;0.81;61.54
74561;BME280;62979;55.720;37.606;2023-01-28T06:05:09;100517.44;;;0.80;61.54
74561;BME280;62979;55.720;37.606;2023-01-28T06:07:37;100515.72;;;0.80;61.58
74561;BME280;62979;55.720;37.606;2023-01-28T06:10:05;100529.56;;;0.84;61.07
74561;BME280;62979;55.720;37.606;2023-01-28T06:12:33;100532.19;;;0.85;61.39
74561;BME280;62979;55.720;37.606;2023-01-28T06:14:59;100534.81;;;0.87;61.77
74561;BME280;62979;55.720;37.606;2023-01-28T06:17:26;100530.50;;;0.88;61.29
74561;BME280;62979;55.720;37.606;2023-01-28T06:19:53;100533.84;;;0.83;61.42
74561;BME280;62979;55.720;37.606;2023-01-28T06:22:20;100538.88;;;0.80;61.03
74561;BME280;62979;55.720;37.606;2023-01-28T06:24:49;100540.47;;;0.75;60.93
74561;BME280;62979;55.720;37.606;2023-01-28T06:27:16;100542.97;;;0.72;61.24
74561;BME280;62979;55.720;37.606;2023-01-28T06:29:43;100542.22;;;0.76;61.01
74561;BME280;62979;55.720;37.606;2023-01-28T06:32:09;100537.22;;;0.81;61.89
74561;BME280;62979;55.720;37.606;2023-01-28T06:34:36;100537.16;;;0.79;61.38
74561;BME280;62979;55.720;37.606;2023-01-28T06:37:03;100536.28;;;0.79;61.44
74561;BME280;62979;55.720;37.606;2023-01-28T06:39:30;100538.88;;;0.80;62.23
74561;BME280;62979;55.720;37.606;2023-01-28T06:41:59;100547.53;;;0.82;61.74
74561;BME280;62979;55.720;37.606;2023-01-28T06:44:26;100544.97;;;0.82;61.41
74561;BME280;62979;55.720;37.606;2023-01-28T06:46:53;100538.81;;;0.77;61.81
74561;BME280;62979;55.720;37.606;2023-01-28T06:49:20;100551.00;;;0.83;62.38
74561;BME280;62979;55.720;37.606;2023-01-28T06:51:47;100549.13;;;0.77;61.76
74561;BME280;62979;55.720;37.606;2023-01-28T06:54:14;100552.53;;;0.76;61.74
74561;BME280;62979;55.720;37.606;2023-01-28T06:56:41;100547.09;;;0.67;61.73
74561;BME280;62979;55.720;37.606;2023-01-28T06:59:10;100542.59;;;0.60;61.65
74561;BME280;62979;55.720;37.606;2023-01-28T07:01:37;100553.91;;;0.65;62.00
74561;BME280;62979;55.720;37.606;2023-01-28T07:04:04;100522.59;;;0.51;61.69
74561;BME280;62979;55.720;37.606;2023-01-28T07:06:31;100557.13;;;0.58;61.70
74561;BME280;62979;55.720;37.606;2023-01-28T07:08:58;100551.19;;;0.60;61.79
74561;BME280;62979;55.720;37.606;2023-01-28T07:11:25;100558.56;;;0.48;61.68
74561;BME280;62979;55.720;37.606;2023-01-28T07:13:52;100548.03;;;0.40;62.46
74561;BME280;62979;55.720;37.606;2023-01-28T07:16:20;100562.13;;;0.53;62.70
74561;BME280;62979;55.720;37.606;2023-01-28T07:18:47;100555.56;;;0.63;62.46
74561;BME280;62979;55.720;37.606;2023-01-28T07:21:15;100561.59;;;0.63;62.32
74561;BME280;62979;55.720;37.606;2023-01-28T07:23:42;100560.91;;;0.69;62.16
74561;BME280;62979;55.720;37.606;2023-01-28T07:26:10;100568.47;;;0.64;61.26
74561;BME280;62979;55.720;37.606;2023-01-28T07:28:37;100572.66;;;0.61;61.35
74561;BME280;62979;55.720;37.606;2023-01-28T07:31:04;100572.66;;;0.61;60.95
74561;BME280;62979;55.720;37.606;2023-01-28T07:33:32;100566.56;;;0.57;61.21
74561;BME280;62979;55.720;37.606;2023-01-28T07:35:59;100565.06;;;0.66;61.37
74561;BME280;62979;55.720;37.606;2023-01-28T07:38:26;100561.69;;;0.67;60.96
74561;BME280;62979;55.720;37.606;2023-01-28T07:40:53;100559.63;;;0.55;60.34
74561;BME280;62979;55.720;37.606;2023-01-28T07:43:20;100556.97;;;0.52;60.70
74561;BME280;62979;55.720;37.606;2023-01-28T07:45:47;100555.41;;;0.57;61.11
74561;BME280;62979;55.720;37.606;2023-01-28T07:48:14;100557.13;;;0.58;60.69
74561;BME280;62979;55.720;37.606;2023-01-28T07:50:42;100554.25;;;0.47;60.67
74561;BME280;62979;55.720;37.606;2023-01-28T07:53:10;100559.53;;;0.52;61.59
74561;BME280;62979;55.720;37.606;2023-01-28T07:55:38;100559.69;;;0.58;61.93
74561;BME280;62979;55.720;37.606;2023-01-28T07:58:06;100558.03;;;0.31;60.97
74561;BME280;62979;55.720;37.606;2023-01-28T08:00:35;100556.59;;;0.39;61.33
74561;BME280;62979;55.720;37.606;2023-01-28T08:03:05;100557.59;;;0.45;61.24
74561;BME280;62979;55.720;37.606;2023-01-28T08:05:38;100544.44;;;0.35;60.79
74561;BME280;62979;55.720;37.606;2023-01-28T08:08:09;100558.59;;;0.50;60.71
74561;BME280;62979;55.720;37.606;2023-01-28T08:10:37;100545.75;;;0.51;60.84
74561;BME280;62979;55.720;37.606;2023-01-28T08:13:04;100555.56;;;0.63;60.29
74561;BME280;62979;55.720;37.606;2023-01-28T08:15:33;100541.75;;;0.59;60.34
74561;BME280;62979;55.720;37.606;2023-01-28T08:18:02;100549.81;;;0.72;60.35
74561;BME280;62979;55.720;37.606;2023-01-28T08:20:30;100549.03;;;0.74;59.46
74561;BME280;62979;55.720;37.606;2023-01-28T08:23:05;100548.16;;;0.74;59.64
74561;BME280;62979;55.720;37.606;2023-01-28T08:25:34;100550.75;;;0.75;59.99
74561;BME280;62979;55.720;37.606;2023-01-28T08:28:01;100546.63;;;0.80;59.52
74561;BME280;62979;55.720;37.606;2023-01-28T08:30:29;100556.91;;;0.79;59.90
74561;BME280;62979;55.720;37.606;2023-01-28T08:32:56;100550.75;;;0.75;59.45
74561;BME280;62979;55.720;37.606;2023-01-28T08:35:24;100549.13;;;0.77;59.59
74561;BME280;62979;55.720;37.606;2023-01-28T08:37:51;100549.31;;;0.83;58.94
74561;BME280;62979;55.720;37.606;2023-01-28T08:40:19;100548.47;;;0.84;58.58
74561;BME280;62979;55.720;37.606;2023-01-28T08:42:49;100539.47;;;0.70;58.70
74561;BME280;62979;55.720;37.606;2023-01-28T08:45:18;100540.59;;;0.78;58.07
74561;BME280;62979;55.720;37.606;2023-01-28T08:47:47;100542.22;;;0.76;58.46
74561;BME280;62979;55.720;37.606;2023-01-28T08:50:15;100552.25;;;0.67;58.18
74561;BME280;62979;55.720;37.606;2023-01-28T08:52:43;100544.34;;;0.61;58.75
74561;BME280;62979;55.720;37.606;2023-01-28T08:55:10;100544.63;;;0.70;58.95
74561;BME280;62979;55.720;37.606;2023-01-28T08:57:37;100532.75;;;0.75;59.05
74561;BME280;62979;55.720;37.606;2023-01-28T09:00:08;100534.59;;;0.79;59.10
74561;BME280;62979;55.720;37.606;2023-01-28T09:02:36;100520.06;;;0.81;59.03
74561;BME280;62979;55.720;37.606;2023-01-28T09:05:04;100534.00;;;0.90;59.22
74561;BME280;62979;55.720;37.606;2023-01-28T09:07:34;100541.06;;;0.95;59.42
74561;BME280;62979;55.720;37.606;2023-01-28T09:10:00;100536.84;;;0.99;59.55
74561;BME280;62979;55.720;37.606;2023-01-28T09:12:28;100532.69;;;1.04;59.49
74561;BME280;62979;55.720;37.606;2023-01-28T09:14:54;100533.56;;;1.04;59.02
74561;BME280;62979;55.720;37.606;2023-01-28T09:17:23;100529.25;;;1.03;58.47
74561;BME280;62979;55.720;37.606;2023-01-28T09:19:50;100531.13;;;1.09;59.19
74561;BME280;62979;55.720;37.606;2023-01-28T09:22:17;100526.97;;;1.14;59.41
74561;BME280;62979;55.720;37.606;2023-01-28T09:24:44;100525.28;;;1.15;58.49
74561;BME280;62979;55.720;37.606;2023-01-28T09:27:11;100530.25;;;1.09;58.50
74561;BME280;62979;55.720;37.606;2023-01-28T09:29:38;100517.13;;;0.99;58.13
74561;BME280;62979;55.720;37.606;2023-01-28T09:32:05;100523.91;;;0.96;59.34
74561;BME280;62979;55.720;37.606;2023-01-28T09:34:34;100517.81;;;0.94;58.95
74561;BME280;62979;55.720;37.606;2023-01-28T09:37:01;100506.75;;;0.96;58.42
74561;BME280;62979;55.720;37.606;2023-01-28T09:39:27;100520.41;;;0.94;58.54
74561;BME280;62979;55.720;37.606;2023-01-28T09:42:04;100522.41;;;1.04;59.35
74561;BME280;62979;55.720;37.606;2023-01-28T09:44:54;100516.44;;;1.05;59.35
74561;BME280;62979;55.720;37.606;2023-01-28T09:47:30;100514.97;;;1.15;58.82
74561;BME280;62979;55.720;37.606;2023-01-28T09:50:05;100519.88;;;1.05;58.98
74561;BME280;62979;55.720;37.606;2023-01-28T09:52:36;100497.31;;;0.97;58.81
74561;BME280;62979;55.720;37.606;2023-01-28T09:55:14;100511.38;;;1.10;58.46
74561;BME280;62979;55.720;37.606;2023-01-28T09:57:49;100505.53;;;1.15;58.79
74561;BME280;62979;55.720;37.606;2023-01-28T10:00:22;100515.19;;;1.22;59.01
74561;BME280;62979;55.720;37.606;2023-01-28T10:03:06;100505.00;;;1.27;58.53
74561;BME280;62979;55.720;37.606;2023-01-28T10:05:54;100500.63;;;1.24;57.45
74561;BME280;62979;55.720;37.606;2023-01-28T10:08:41;100508.25;;;1.20;57.77
74561;BME280;62979;55.720;37.606;2023-01-28T10:11:49;100502.03;;;1.13;57.57
74561;BME280;62979;55.720;37.606;2023-01-28T10:14:30;100493.47;;;1.14;57.78
74561;BME280;62979;55.720;37.606;2023-01-28T10:17:11;100497.69;;;1.11;57.42
74561;BME280;62979;55.720;37.606;2023-01-28T10:19:46;100488.16;;;1.08;57.82
74561;BME280;62979;55.720;37.606;2023-01-28T10:22:21;100492.56;;;1.12;57.47
74561;BME280;62979;55.720;37.606;2023-01-28T10:24:54;100500.38;;;1.15;57.72
74561;BME280;62979;55.720;37.606;2023-01-28T10:27:28;100487.19;;;1.04;58.12
74561;BME280;62979;55.720;37.606;2023-01-28T10:29:58;100488.84;;;1.01;58.03
74561;BME280;62979;55.720;37.606;2023-01-28T10:32:37;100478.81;;;1.12;57.62
74561;BME280;62979;55.720;37.606;2023-01-28T10:35:12;100471.88;;;1.09;57.53
74561;BME280;62979;55.720;37.606;2023-01-28T10:37:40;100474.44;;;1.09;57.84
74561;BME280;62979;55.720;37.606;2023-01-28T10:40:13;100477.28;;;1.18;58.05
74561;BME280;62979;55.720;37.606;2023-01-28T10:42:41;100471.19;;;1.15;57.58
74561;BME280;62979;55.720;37.606;2023-01-28T10:45:15;100467.25;;;0.96;57.85
74561;BME280;62979;55.720;37.606;2023-01-28T10:47:47;100475.75;;;0.93;58.05
74561;BME280;62979;55.720;37.606;2023-01-28T10:50:22;100473.31;;;0.98;57.92
74561;BME280;62979;55.720;37.606;2023-01-28T10:52:56;100449.88;;;0.89;57.96
74561;BME280;62979;55.720;37.606;2023-01-28T10:55:26;100462.47;;;1.11;57.81
74561;BME280;62979;55.720;37.606;2023-01-28T10:57:57;100466.91;;;1.15;58.25
74561;BME280;62979;55.720;37.606;2023-01-28T11:00:27;100459.16;;;1.15;58.27
74561;BME280;62979;55.720;37.606;2023-01-28T11:02:59;100460.03;;;1.16;57.91
74561;BME280;62979;55.720;37.606;2023-01-28T11:05:27;100457.41;;;1.14;58.30
74561;BME280;62979;55.720;37.606;2023-01-28T11:08:05;100460.97;;;1.19;57.49
74561;BME280;62979;55.720;37.606;2023-01-28T11:10:43;100453.91;;;1.12;58.19
74561;BME280;62979;55.720;37.606;2023-01-28T11:13:15;100452.25;;;1.14;58.00
74561;BME280;62979;55.720;37.606;2023-01-28T11:15:46;100456.66;;;1.18;58.31
74561;BME280;62979;55.720;37.606;2023-01-28T11:18:18;100446.34;;;1.18;58.46
74561;BME280;62979;55.720;37.606;2023-01-28T11:20:49;100443.16;;;1.27;57.70
74561;BME280;62979;55.720;37.606;2023-01-28T11:23:23;100438.03;;;1.28;57.85
74561;BME280;62979;55.720;37.606;2023-01-28T11:26:05;100432.06;;;1.30;58.04
74561;BME280;62979;55.720;37.606;2023-01-28T11:28:34;100442.53;;;1.37;57.88
74561;BME280;62979;55.720;37.606;2023-01-28T11:31:07;100441.88;;;1.44;57.53
74561;BME280;62979;55.720;37.606;2023-01-28T11:33:41;100441.69;;;1.37;57.88
74561;BME280;62979;55.720;37.606;2023-01-28T11:36:14;100409.69;;;1.28;57.45
74561;BME280;62979;55.720;37.606;2023-01-28T11:38:52;100431.63;;;1.47;57.60
74561;BME280;62979;55.720;37.606;2023-01-28T11:41:26;100425.59;;;1.47;57.19
74561;BME280;62979;55.720;37.606;2023-01-28T11:43:55;100429.34;;;1.25;57.30
74561;BME280;62979;55.720;37.606;2023-01-28T11:49:34;100411.81;;;1.10;58.07
74561;BME280;62979;55.720;37.606;2023-01-28T11:52:18;100424.16;;;1.23;58.19
74561;BME280;62979;55.720;37.606;2023-01-28T11:55:03;100419.97;;;1.28;57.63
74561;BME280;62979;55.720;37.606;2023-01-28T11:57:52;100420.28;;;1.39;57.58
74561;BME280;62979;55.720;37.606;2023-01-28T12:00:37;100412.59;;;1.42;57.44
74561;BME280;62979;55.720;37.606;2023-01-28T12:03:27;100399.41;;;1.30;57.22
74561;BME280;62979;55.720;37.606;2023-01-28T12:06:27;100392.50;;;1.29;57.24
74561;BME280;62979;55.720;37.606;2023-01-28T12:09:13;100398.81;;;1.40;57.65
74561;BME280;62979;55.720;37.606;2023-01-28T12:11:55;100386.94;;;1.47;57.23
74561;BME280;62979;55.720;37.606;2023-01-28T12:15:08;100397.38;;;1.53;57.17
74561;BME280;62979;55.720;37.606;2023-01-28T12:18:01;100390.38;;;1.47;57.18
74561;BME280;62979;55.720;37.606;2023-01-28T12:20:44;100393.97;;;1.54;57.02
74561;BME280;62979;55.720;37.606;2023-01-28T12:23:34;100393.00;;;1.49;56.98
74561;BME280;62979;55.720;37.606;2023-01-28T12:26:15;100397.13;;;1.42;57.64
74561;BME280;62979;55.720;37.606;2023-01-28T12:28:58;100393.75;;;1.45;57.38
74561;BME280;62979;55.720;37.606;2023-01-28T12:31:52;100392.00;;;1.44;56.98
74561;BME280;62979;55.720;37.606;2023-01-28T12:34:47;100395.59;;;1.49;57.47
74561;BME280;62979;55.720;37.606;2023-01-28T12:37:33;100391.13;;;1.42;57.25
74561;BME280;62979;55.720;37.606;2023-01-28T12:40:26;100379.16;;;1.45;57.52
74561;BME280;62979;55.720;37.606;2023-01-28T12:43:10;100385.97;;;1.42;57.73
74561;BME280;62979;55.720;37.606;2023-01-28T12:45:49;100378.19;;;1.40;57.78
74561;BME280;62979;55.720;37.606;2023-01-28T12:48:22;100380.94;;;1.48;57.66
74561;BME280;62979;55.720;37.606;2023-01-28T12:50:59;100379.22;;;1.47;57.83
74561;BME280;62979;55.720;37.606;2023-01-28T12:53:35;100362.53;;;1.33;57.90
74561;BME280;62979;55.720;37.606;2023-01-28T12:56:10;100376.34;;;1.36;58.30
74561;BME280;62979;55.720;37.606;2023-01-28T12:58:45;100364.16;;;1.27;57.98
74561;BME280;62979;55.720;37.606;2023-01-28T13:01:23;100367.75;;;1.34;58.21
74561;BME280;62979;55.720;37.606;2023-01-28T13:03:59;100374.69;;;1.37;57.92
74561;BME280;62979;55.720;37.606;2023-01-28T13:06:34;100377.31;;;1.40;57.89
74561;BME280;62979;55.720;37.606;2023-01-28T13:09:13;100377.31;;;1.40;57.87
74561;BME280;62979;55.720;37.606;2023-01-28T13:11:44;100376.47;;;1.41;58.05
74561;BME280;62979;55.720;37.606;2023-01-28T13:14:14;100372.16;;;1.40;57.97
74561;BME280;62979;55.720;37.606;2023-01-28T13:16:43;100373.91;;;1.41;58.32
74561;BME280;62979;55.720;37.606;2023-01-28T13:19:22;100378.25;;;1.43;57.96
74561;BME280;62979;55.720;37.606;2023-01-28T13:21:51;100372.16;;;1.40;58.22